createdAt,value
2017-01-16T00:00:49.871Z,955.05
2017-01-16T00:01:49.851Z,955.01
2017-01-16T00:02:49.831Z,955.04
2017-01-16T00:03:49.812Z,955.05
2017-01-16T00:04:49.792Z,955.01
2017-01-16T00:05:49.772Z,955.04
2017-01-16T00:06:49.753Z,955.06
2017-01-16T00:07:49.733Z,955.05
2017-01-16T00:08:49.714Z,955.05
2017-01-16T00:09:49.692Z,955.02
2017-01-16T00:10:49.673Z,955.07
2017-01-16T00:11:49.657Z,955.07
2017-01-16T00:12:49.634Z,955.04
2017-01-16T00:13:49.614Z,955.06
2017-01-16T00:14:49.595Z,955.04
2017-01-16T00:15:49.574Z,955.09
2017-01-16T00:16:49.557Z,955.06
2017-01-16T00:17:49.535Z,955.12
2017-01-16T00:18:49.516Z,955.07
2017-01-16T00:19:49.496Z,955.09
2017-01-16T00:20:49.476Z,955.08
2017-01-16T00:21:49.459Z,955.09
2017-01-16T00:22:49.439Z,955.12
2017-01-16T00:23:49.418Z,955.07
2017-01-16T00:24:49.398Z,955.07
2017-01-16T00:25:49.379Z,955.05
2017-01-16T00:26:49.358Z,955.05
2017-01-16T00:27:49.340Z,955.04
2017-01-16T00:28:49.321Z,955.08
2017-01-16T00:29:49.300Z,955.11
2017-01-16T00:30:49.280Z,955.08
2017-01-16T00:31:49.261Z,955.06
2017-01-16T00:32:49.240Z,955.08
2017-01-16T00:33:49.221Z,955.07
2017-01-16T00:34:49.201Z,955.12
2017-01-16T00:35:49.182Z,955.11
2017-01-16T00:36:49.162Z,955.13
2017-01-16T00:37:49.142Z,955.12
2017-01-16T00:38:49.121Z,955.11
2017-01-16T00:39:49.103Z,955.14
2017-01-16T00:40:49.083Z,955.13
2017-01-16T00:41:49.062Z,955.16
2017-01-16T00:42:49.043Z,955.12
2017-01-16T00:43:49.024Z,955.12
2017-01-16T00:44:49.005Z,955.14
2017-01-16T00:45:48.983Z,955.17
2017-01-16T00:46:48.964Z,955.15
2017-01-16T00:47:48.944Z,955.13
2017-01-16T00:48:48.924Z,955.13
2017-01-16T00:49:48.908Z,955.14
2017-01-16T00:50:48.884Z,955.14
2017-01-16T00:51:48.865Z,955.15
2017-01-16T00:52:48.845Z,955.17
2017-01-16T00:53:48.826Z,955.14
2017-01-16T00:54:48.806Z,955.13
2017-01-16T00:55:48.786Z,955.19
2017-01-16T00:56:48.766Z,955.16
2017-01-16T00:57:48.748Z,955.14
2017-01-16T00:58:48.727Z,955.18
2017-01-16T00:59:48.706Z,955.17
2017-01-16T01:00:48.687Z,955.18
2017-01-16T01:01:48.668Z,955.21
2017-01-16T01:02:48.648Z,955.19
2017-01-16T01:03:48.627Z,955.21
2017-01-16T01:04:48.608Z,955.24
2017-01-16T01:05:48.587Z,955.24
2017-01-16T01:06:48.569Z,955.25
2017-01-16T01:07:48.549Z,955.24
2017-01-16T01:08:48.529Z,955.25
2017-01-16T01:09:48.510Z,955.24
2017-01-16T01:10:48.489Z,955.26
2017-01-16T01:11:48.469Z,955.26
2017-01-16T01:12:48.450Z,955.3
2017-01-16T01:13:48.430Z,955.29
2017-01-16T01:14:48.410Z,955.32
2017-01-16T01:15:48.391Z,955.31
2017-01-16T01:16:48.371Z,955.3
2017-01-16T01:17:48.352Z,955.28
2017-01-16T01:18:48.332Z,955.3
2017-01-16T01:19:48.313Z,955.29
2017-01-16T01:20:48.293Z,955.36
2017-01-16T01:21:48.272Z,955.3
2017-01-16T01:22:48.253Z,955.3
2017-01-16T01:23:48.233Z,955.33
2017-01-16T01:24:48.214Z,955.34
2017-01-16T01:25:48.193Z,955.41
2017-01-16T01:26:48.174Z,955.38
2017-01-16T01:27:48.154Z,955.33
2017-01-16T01:28:48.134Z,955.38
2017-01-16T01:29:48.114Z,955.34
2017-01-16T01:30:48.095Z,955.38
2017-01-16T01:31:48.075Z,955.36
2017-01-16T01:32:48.056Z,955.35
2017-01-16T01:33:48.034Z,955.4
2017-01-16T01:34:48.015Z,955.37
2017-01-16T01:35:47.997Z,955.37
2017-01-16T01:36:47.975Z,955.33
2017-01-16T01:37:47.954Z,955.37
2017-01-16T01:38:47.936Z,955.38
2017-01-16T01:39:47.915Z,955.36
2017-01-16T01:40:47.896Z,955.32
2017-01-16T01:41:47.876Z,955.37
2017-01-16T01:42:47.856Z,955.33
2017-01-16T01:43:47.836Z,955.33
2017-01-16T01:44:47.817Z,955.39
2017-01-16T01:45:47.799Z,955.36
2017-01-16T01:46:47.780Z,955.35
2017-01-16T01:47:47.758Z,955.4
2017-01-16T01:48:47.737Z,955.42
2017-01-16T01:49:47.718Z,955.36
2017-01-16T01:50:47.701Z,955.39
2017-01-16T01:51:47.678Z,955.41
2017-01-16T01:52:47.659Z,955.42
2017-01-16T01:53:47.639Z,955.39
2017-01-16T01:54:47.620Z,955.4
2017-01-16T01:55:47.601Z,955.4
2017-01-16T01:56:47.581Z,955.35
2017-01-16T01:57:47.560Z,955.37
2017-01-16T01:58:47.540Z,955.38
2017-01-16T01:59:47.521Z,955.34
2017-01-16T02:00:47.501Z,955.39
2017-01-16T02:01:47.480Z,955.37
2017-01-16T02:02:47.460Z,955.35
2017-01-16T02:03:47.441Z,955.37
2017-01-16T02:04:47.422Z,955.35
2017-01-16T02:05:47.402Z,955.36
2017-01-16T02:06:50.534Z,955.37
2017-01-16T02:07:47.362Z,955.39
2017-01-16T02:08:47.342Z,955.37
2017-01-16T02:09:47.322Z,955.38
2017-01-16T02:10:47.302Z,955.35
2017-01-16T02:11:47.282Z,955.39
2017-01-16T02:12:47.262Z,955.38
2017-01-16T02:13:47.243Z,955.4
2017-01-16T02:14:47.224Z,955.39
2017-01-16T02:15:47.203Z,955.39
2017-01-16T02:16:47.183Z,955.38
2017-01-16T02:17:47.164Z,955.38
2017-01-16T02:18:47.145Z,955.39
2017-01-16T02:19:47.125Z,955.44
2017-01-16T02:20:47.105Z,955.42
2017-01-16T02:21:47.086Z,955.43
2017-01-16T02:22:47.067Z,955.41
2017-01-16T02:23:47.046Z,955.42
2017-01-16T02:24:47.025Z,955.44
2017-01-16T02:25:47.008Z,955.42
2017-01-16T02:26:46.987Z,955.43
2017-01-16T02:27:46.966Z,955.45
2017-01-16T02:28:46.947Z,955.46
2017-01-16T02:29:46.926Z,955.44
2017-01-16T02:30:46.908Z,955.42
2017-01-16T02:31:46.887Z,955.45
2017-01-16T02:32:46.868Z,955.42
2017-01-16T02:33:46.848Z,955.45
2017-01-16T02:34:46.827Z,955.42
2017-01-16T02:35:46.808Z,955.41
2017-01-16T02:36:46.789Z,955.46
2017-01-16T02:37:46.770Z,955.46
2017-01-16T02:38:46.748Z,955.44
2017-01-16T02:39:46.729Z,955.44
2017-01-16T02:40:46.710Z,955.44
2017-01-16T02:41:46.691Z,955.42
2017-01-16T02:42:46.670Z,955.47
2017-01-16T02:43:46.649Z,955.48
2017-01-16T02:44:46.630Z,955.46
2017-01-16T02:45:46.611Z,955.47
2017-01-16T02:46:46.591Z,955.48
2017-01-16T02:47:46.571Z,955.47
2017-01-16T02:48:46.552Z,955.49
2017-01-16T02:49:46.532Z,955.48
2017-01-16T02:50:46.513Z,955.47
2017-01-16T02:51:46.493Z,955.42
2017-01-16T02:52:46.473Z,955.44
2017-01-16T02:53:46.455Z,955.47
2017-01-16T02:54:46.435Z,955.47
2017-01-16T02:55:46.415Z,955.46
2017-01-16T02:56:46.394Z,955.5
2017-01-16T02:57:46.376Z,955.47
2017-01-16T02:58:46.356Z,955.45
2017-01-16T02:59:46.337Z,955.45
2017-01-16T03:00:46.315Z,955.46
2017-01-16T03:01:46.297Z,955.42
2017-01-16T03:02:46.278Z,955.48
2017-01-16T03:03:46.256Z,955.48
2017-01-16T03:04:46.237Z,955.45
2017-01-16T03:05:46.220Z,955.5
2017-01-16T03:06:46.198Z,955.53
2017-01-16T03:07:46.178Z,955.54
2017-01-16T03:08:46.157Z,955.53
2017-01-16T03:09:46.138Z,955.53
2017-01-16T03:10:46.119Z,955.49
2017-01-16T03:11:46.098Z,955.52
2017-01-16T03:12:46.079Z,955.55
2017-01-16T03:13:46.060Z,955.55
2017-01-16T03:14:46.039Z,955.53
2017-01-16T03:15:46.019Z,955.55
2017-01-16T03:16:45.999Z,955.5
2017-01-16T03:17:45.980Z,955.5
2017-01-16T03:18:45.960Z,955.56
2017-01-16T03:19:45.942Z,955.53
2017-01-16T03:20:45.921Z,955.53
2017-01-16T03:21:45.900Z,955.49
2017-01-16T03:22:45.881Z,955.52
2017-01-16T03:23:45.861Z,955.5
2017-01-16T03:24:45.841Z,955.55
2017-01-16T03:25:45.821Z,955.55
2017-01-16T03:26:45.801Z,955.56
2017-01-16T03:27:45.783Z,955.58
2017-01-16T03:28:45.762Z,955.58
2017-01-16T03:29:45.742Z,955.57
2017-01-16T03:30:45.722Z,955.58
2017-01-16T03:31:45.702Z,955.6
2017-01-16T03:32:45.682Z,955.56
2017-01-16T03:33:45.661Z,955.61
2017-01-16T03:34:45.643Z,955.58
2017-01-16T03:35:45.623Z,955.6
2017-01-16T03:36:45.603Z,955.57
2017-01-16T03:37:45.583Z,955.63
2017-01-16T03:38:45.563Z,955.58
2017-01-16T03:39:45.544Z,955.52
2017-01-16T03:40:45.523Z,955.55
2017-01-16T03:41:45.504Z,955.49
2017-01-16T03:42:45.483Z,955.56
2017-01-16T03:43:45.464Z,955.57
2017-01-16T03:44:45.443Z,955.53
2017-01-16T03:45:45.425Z,955.53
2017-01-16T03:46:45.405Z,955.53
2017-01-16T03:47:45.383Z,955.56
2017-01-16T03:48:45.365Z,955.58
2017-01-16T03:49:45.345Z,955.52
2017-01-16T03:50:45.325Z,955.52
2017-01-16T03:51:45.303Z,955.49
2017-01-16T03:52:45.284Z,955.48
2017-01-16T03:53:45.264Z,955.5
2017-01-16T03:54:45.243Z,955.54
2017-01-16T03:55:45.223Z,955.47
2017-01-16T03:56:45.205Z,955.52
2017-01-16T03:57:45.183Z,955.52
2017-01-16T03:58:45.162Z,955.59
2017-01-16T03:59:45.144Z,955.56
2017-01-16T04:00:45.124Z,955.55
2017-01-16T04:01:45.104Z,955.59
2017-01-16T04:02:45.082Z,955.54
2017-01-16T04:03:45.064Z,955.58
2017-01-16T04:04:45.045Z,955.6
2017-01-16T04:05:45.025Z,955.58
2017-01-16T04:06:45.003Z,955.61
2017-01-16T04:07:44.984Z,955.57
2017-01-16T04:08:44.963Z,955.54
2017-01-16T04:09:44.944Z,955.6
2017-01-16T04:10:44.923Z,955.56
2017-01-16T04:11:44.903Z,955.64
2017-01-16T04:12:44.884Z,955.62
2017-01-16T04:13:44.864Z,955.66
2017-01-16T04:14:44.844Z,955.64
2017-01-16T04:15:44.824Z,955.65
2017-01-16T04:16:44.803Z,955.62
2017-01-16T04:17:44.833Z,955.63
2017-01-16T04:18:44.763Z,955.61
2017-01-16T04:19:44.744Z,955.59
2017-01-16T04:20:44.724Z,955.66
2017-01-16T04:21:44.703Z,955.65
2017-01-16T04:22:44.799Z,955.62
2017-01-16T04:23:44.663Z,955.7
2017-01-16T04:24:44.643Z,955.68
2017-01-16T04:25:44.624Z,955.65
2017-01-16T04:26:44.605Z,955.63
2017-01-16T04:27:44.633Z,955.66
2017-01-16T04:28:44.564Z,955.68
2017-01-16T04:29:44.545Z,955.69
2017-01-16T04:30:44.525Z,955.73
2017-01-16T04:31:44.504Z,955.74
2017-01-16T04:32:44.485Z,955.71
2017-01-16T04:33:44.466Z,955.75
2017-01-16T04:34:44.445Z,955.76
2017-01-16T04:35:44.425Z,955.7
2017-01-16T04:36:44.405Z,955.75
2017-01-16T04:37:44.436Z,955.76
2017-01-16T04:38:44.364Z,955.77
2017-01-16T04:39:44.345Z,955.79
2017-01-16T04:40:44.325Z,955.81
2017-01-16T04:41:44.306Z,955.79
2017-01-16T04:42:44.284Z,955.75
2017-01-16T04:43:44.265Z,955.76
2017-01-16T04:44:44.245Z,955.76
2017-01-16T04:45:44.226Z,955.81
2017-01-16T04:46:44.206Z,955.82
2017-01-16T04:47:44.186Z,955.82
2017-01-16T04:48:44.165Z,955.78
2017-01-16T04:49:44.145Z,955.84
2017-01-16T04:50:44.125Z,955.82
2017-01-16T04:51:44.106Z,955.82
2017-01-16T04:52:44.087Z,955.87
2017-01-16T04:53:44.066Z,955.93
2017-01-16T04:54:44.047Z,955.87
2017-01-16T04:55:44.027Z,955.88
2017-01-16T04:56:44.007Z,955.88
2017-01-16T04:57:43.987Z,955.88
2017-01-16T04:58:43.967Z,955.88
2017-01-16T04:59:43.946Z,955.88
2017-01-16T05:00:43.926Z,955.93
2017-01-16T05:01:43.906Z,955.98
2017-01-16T05:02:43.887Z,955.96
2017-01-16T05:03:43.867Z,955.95
2017-01-16T05:04:43.847Z,955.95
2017-01-16T05:05:43.828Z,955.93
2017-01-16T05:06:43.809Z,955.93
2017-01-16T05:07:43.789Z,955.95
2017-01-16T05:08:43.768Z,955.95
2017-01-16T05:09:43.749Z,955.93
2017-01-16T05:10:43.728Z,955.99
2017-01-16T05:11:43.708Z,955.97
2017-01-16T05:12:43.688Z,956.01
2017-01-16T05:13:43.668Z,956
2017-01-16T05:14:43.649Z,955.97
2017-01-16T05:15:43.628Z,955.97
2017-01-16T05:16:43.609Z,956.01
2017-01-16T05:17:43.589Z,955.98
2017-01-16T05:18:43.570Z,956.01
2017-01-16T05:19:43.548Z,956.01
2017-01-16T05:20:43.528Z,956
2017-01-16T05:21:43.510Z,956.02
2017-01-16T05:22:43.489Z,956.04
2017-01-16T05:23:43.469Z,956.03
2017-01-16T05:24:43.449Z,955.97
2017-01-16T05:25:43.430Z,956.05
2017-01-16T05:26:43.409Z,956.02
2017-01-16T05:27:43.388Z,956.06
2017-01-16T05:28:43.368Z,956.03
2017-01-16T05:29:43.350Z,956.02
2017-01-16T05:30:43.329Z,956.07
2017-01-16T05:31:43.309Z,956.03
2017-01-16T05:32:43.289Z,956.06
2017-01-16T05:33:43.268Z,956.05
2017-01-16T05:34:43.250Z,956.09
2017-01-16T05:35:43.230Z,956.05
2017-01-16T05:36:43.210Z,956.02
2017-01-16T05:37:43.188Z,956.05
2017-01-16T05:38:43.169Z,956.04
2017-01-16T05:39:43.150Z,956.06
2017-01-16T05:40:43.130Z,956.07
2017-01-16T05:41:43.116Z,956.03
2017-01-16T05:42:43.089Z,956.04
2017-01-16T05:43:43.069Z,956.1
2017-01-16T05:44:43.049Z,956.09
2017-01-16T05:45:43.029Z,956.09
2017-01-16T05:46:43.009Z,956.08
2017-01-16T05:47:42.989Z,956.1
2017-01-16T05:48:42.969Z,956.11
2017-01-16T05:49:42.950Z,956.07
2017-01-16T05:50:42.928Z,956.16
2017-01-16T05:51:42.909Z,956.11
2017-01-16T05:52:42.889Z,956.17
2017-01-16T05:53:42.868Z,956.14
2017-01-16T05:54:42.850Z,956.16
2017-01-16T05:55:42.828Z,956.18
2017-01-16T05:56:42.808Z,956.2
2017-01-16T05:57:42.789Z,956.13
2017-01-16T05:58:42.768Z,956.15
2017-01-16T05:59:42.748Z,956.19
2017-01-16T06:00:42.728Z,956.16
2017-01-16T06:01:42.709Z,956.19
2017-01-16T06:02:42.687Z,956.18
2017-01-16T06:03:42.668Z,956.23
2017-01-16T06:04:42.649Z,956.29
2017-01-16T06:05:42.630Z,956.21
2017-01-16T06:06:42.607Z,956.26
2017-01-16T06:07:42.587Z,956.26
2017-01-16T06:08:42.568Z,956.28
2017-01-16T06:09:42.548Z,956.28
2017-01-16T06:10:42.527Z,956.35
2017-01-16T06:11:42.508Z,956.27
2017-01-16T06:12:42.486Z,956.33
2017-01-16T06:13:42.467Z,956.37
2017-01-16T06:14:42.448Z,956.4
2017-01-16T06:15:42.427Z,956.41
2017-01-16T06:16:42.407Z,956.42
2017-01-16T06:17:42.388Z,956.43
2017-01-16T06:18:42.365Z,956.45
2017-01-16T06:19:42.347Z,956.46
2017-01-16T06:20:42.326Z,956.5
2017-01-16T06:21:42.312Z,956.51
2017-01-16T06:22:42.284Z,956.52
2017-01-16T06:23:42.265Z,956.52
2017-01-16T06:24:42.245Z,956.47
2017-01-16T06:25:42.225Z,956.5
2017-01-16T06:26:42.204Z,956.55
2017-01-16T06:27:42.184Z,956.53
2017-01-16T06:28:42.163Z,956.57
2017-01-16T06:29:42.142Z,956.61
2017-01-16T06:30:42.123Z,956.59
2017-01-16T06:31:42.104Z,956.64
2017-01-16T06:32:42.083Z,956.62
2017-01-16T06:33:42.062Z,956.65
2017-01-16T06:34:42.043Z,956.62
2017-01-16T06:35:42.022Z,956.63
2017-01-16T06:36:42.002Z,956.7
2017-01-16T06:37:41.982Z,956.65
2017-01-16T06:38:41.962Z,956.69
2017-01-16T06:39:41.940Z,956.67
2017-01-16T06:40:41.921Z,956.64
2017-01-16T06:41:41.901Z,956.72
2017-01-16T06:42:41.881Z,956.74
2017-01-16T06:43:41.861Z,956.71
2017-01-16T06:44:41.840Z,956.73
2017-01-16T06:45:41.821Z,956.76
2017-01-16T06:46:41.799Z,956.79
2017-01-16T06:47:41.779Z,956.82
2017-01-16T06:48:41.759Z,956.78
2017-01-16T06:49:41.740Z,956.81
2017-01-16T06:50:41.720Z,956.8
2017-01-16T06:51:41.698Z,956.82
2017-01-16T06:52:41.679Z,956.84
2017-01-16T06:53:41.658Z,956.82
2017-01-16T06:54:41.637Z,956.88
2017-01-16T06:55:41.619Z,956.86
2017-01-16T06:56:41.599Z,956.82
2017-01-16T06:57:41.577Z,956.86
2017-01-16T06:58:41.558Z,956.83
2017-01-16T06:59:41.538Z,956.88
2017-01-16T07:00:41.516Z,956.88
2017-01-16T07:01:41.497Z,956.87
2017-01-16T07:02:41.476Z,956.91
2017-01-16T07:03:41.457Z,956.9
2017-01-16T07:04:41.437Z,956.92
2017-01-16T07:05:41.417Z,956.9
2017-01-16T07:06:41.396Z,956.93
2017-01-16T07:07:41.375Z,956.93
2017-01-16T07:08:41.354Z,956.95
2017-01-16T07:09:41.334Z,956.98
2017-01-16T07:10:41.314Z,956.94
2017-01-16T07:11:41.295Z,956.99
2017-01-16T07:12:41.274Z,957
2017-01-16T07:13:41.253Z,956.98
2017-01-16T07:14:41.234Z,957.07
2017-01-16T07:15:41.213Z,956.98
2017-01-16T07:16:41.193Z,956.98
2017-01-16T07:17:41.172Z,957.06
2017-01-16T07:18:41.152Z,957
2017-01-16T07:19:41.131Z,957
2017-01-16T07:20:41.112Z,957.07
2017-01-16T07:21:41.092Z,957.08
2017-01-16T07:22:41.071Z,957.05
2017-01-16T07:23:41.050Z,957.09
2017-01-16T07:24:41.031Z,957.07
2017-01-16T07:25:41.011Z,957.13
2017-01-16T07:26:40.991Z,957.11
2017-01-16T07:27:40.970Z,957.12
2017-01-16T07:28:40.949Z,957.13
2017-01-16T07:29:40.930Z,957.15
2017-01-16T07:30:40.909Z,957.13
2017-01-16T07:31:40.889Z,957.08
2017-01-16T07:32:40.869Z,957.17
2017-01-16T07:33:40.848Z,957.14
2017-01-16T07:34:40.828Z,957.14
2017-01-16T07:35:40.809Z,957.16
2017-01-16T07:36:40.790Z,957.18
2017-01-16T07:37:40.769Z,957.19
2017-01-16T07:38:40.750Z,957.17
2017-01-16T07:39:40.730Z,957.23
2017-01-16T07:40:40.710Z,957.22
2017-01-16T07:41:40.689Z,957.28
2017-01-16T07:42:40.668Z,957.31
2017-01-16T07:43:40.650Z,957.27
2017-01-16T07:44:40.631Z,957.32
2017-01-16T07:45:40.609Z,957.31
2017-01-16T07:46:40.588Z,957.31
2017-01-16T07:47:40.569Z,957.34
2017-01-16T07:48:40.548Z,957.34
2017-01-16T07:49:40.529Z,957.39
2017-01-16T07:50:40.509Z,957.43
2017-01-16T07:51:40.489Z,957.42
2017-01-16T07:52:40.468Z,957.41
2017-01-16T07:53:40.449Z,957.43
2017-01-16T07:54:40.428Z,957.43
2017-01-16T07:55:40.409Z,957.48
2017-01-16T07:56:40.389Z,957.5
2017-01-16T07:57:40.368Z,957.56
2017-01-16T07:58:40.348Z,957.53
2017-01-16T07:59:40.328Z,957.51
2017-01-16T08:00:40.309Z,957.55
2017-01-16T08:01:40.289Z,957.59
2017-01-16T08:02:40.270Z,957.56
2017-01-16T08:03:40.249Z,957.56
2017-01-16T08:04:40.228Z,957.62
2017-01-16T08:05:40.214Z,957.59
2017-01-16T08:06:40.189Z,957.6
2017-01-16T08:07:40.168Z,957.66
2017-01-16T08:08:40.149Z,957.63
2017-01-16T08:09:40.131Z,957.61
2017-01-16T08:10:40.109Z,957.66
2017-01-16T08:11:40.088Z,957.68
2017-01-16T08:12:40.072Z,957.65
2017-01-16T08:13:40.049Z,957.67
2017-01-16T08:14:40.029Z,957.68
2017-01-16T08:15:40.008Z,957.7
2017-01-16T08:16:39.988Z,957.68
2017-01-16T08:17:39.968Z,957.72
2017-01-16T08:18:39.948Z,957.74
2017-01-16T08:19:39.929Z,957.73
2017-01-16T08:20:39.910Z,957.71
2017-01-16T08:21:39.889Z,957.74
2017-01-16T08:22:39.953Z,957.78
2017-01-16T08:23:39.848Z,957.77
2017-01-16T08:24:39.829Z,957.8
2017-01-16T08:25:39.809Z,957.77
2017-01-16T08:26:39.789Z,957.77
2017-01-16T08:27:39.838Z,957.8
2017-01-16T08:28:39.750Z,957.74
2017-01-16T08:29:39.730Z,957.78
2017-01-16T08:30:39.709Z,957.78
2017-01-16T08:31:39.692Z,957.8
2017-01-16T08:32:39.669Z,957.79
2017-01-16T08:33:39.650Z,957.83
2017-01-16T08:34:39.630Z,957.85
2017-01-16T08:35:39.610Z,957.81
2017-01-16T08:36:39.591Z,957.8
2017-01-16T08:37:39.572Z,957.82
2017-01-16T08:38:39.552Z,957.83
2017-01-16T08:39:39.532Z,957.8
2017-01-16T08:40:39.512Z,957.85
2017-01-16T08:41:39.491Z,957.82
2017-01-16T08:42:39.473Z,957.87
2017-01-16T08:43:39.452Z,957.86
2017-01-16T08:44:39.432Z,957.89
2017-01-16T08:45:39.423Z,957.87
2017-01-16T08:46:39.394Z,957.89
2017-01-16T08:47:39.374Z,957.89
2017-01-16T08:48:39.353Z,957.89
2017-01-16T08:49:39.335Z,957.91
2017-01-16T08:50:39.315Z,957.94
2017-01-16T08:51:39.295Z,957.89
2017-01-16T08:52:39.275Z,957.93
2017-01-16T08:53:39.256Z,957.92
2017-01-16T08:54:39.234Z,957.91
2017-01-16T08:55:39.216Z,957.96
2017-01-16T08:56:39.197Z,957.9
2017-01-16T08:57:39.176Z,957.93
2017-01-16T08:58:39.157Z,957.93
2017-01-16T08:59:39.139Z,957.93
2017-01-16T09:00:39.119Z,957.98
2017-01-16T09:01:39.098Z,957.97
2017-01-16T09:02:39.078Z,958.03
2017-01-16T09:03:39.059Z,957.99
2017-01-16T09:04:39.041Z,958.04
2017-01-16T09:05:39.020Z,957.99
2017-01-16T09:06:39.001Z,958.04
2017-01-16T09:07:38.982Z,957.97
2017-01-16T09:08:38.962Z,958.07
2017-01-16T09:09:38.943Z,958.06
2017-01-16T09:10:38.922Z,958.04
2017-01-16T09:11:38.915Z,958.03
2017-01-16T09:12:38.885Z,958.04
2017-01-16T09:13:38.865Z,958.03
2017-01-16T09:14:38.846Z,958.04
2017-01-16T09:15:38.826Z,958.02
2017-01-16T09:16:38.808Z,958.03
2017-01-16T09:17:38.790Z,958.05
2017-01-16T09:18:38.771Z,958.07
2017-01-16T09:19:38.750Z,958.05
2017-01-16T09:20:38.729Z,958.1
2017-01-16T09:21:38.711Z,958.17
2017-01-16T09:22:38.691Z,958.11
2017-01-16T09:23:38.672Z,958.15
2017-01-16T09:24:38.652Z,958.14
2017-01-16T09:25:38.636Z,958.12
2017-01-16T09:26:38.613Z,958.18
2017-01-16T09:27:38.593Z,958.2
2017-01-16T09:28:38.575Z,958.2
2017-01-16T09:29:38.557Z,958.19
2017-01-16T09:30:38.538Z,958.18
2017-01-16T09:31:38.517Z,958.21
2017-01-16T09:32:38.499Z,958.21
2017-01-16T09:33:38.480Z,958.22
2017-01-16T09:34:38.460Z,958.18
2017-01-16T09:35:38.441Z,958.2
2017-01-16T09:36:38.422Z,958.25
2017-01-16T09:37:38.404Z,958.24
2017-01-16T09:38:38.382Z,958.29
2017-01-16T09:39:38.363Z,958.24
2017-01-16T09:40:38.346Z,958.24
2017-01-16T09:41:38.327Z,958.24
2017-01-16T09:42:38.307Z,958.27
2017-01-16T09:43:38.289Z,958.29
2017-01-16T09:44:38.269Z,958.28
2017-01-16T09:45:38.250Z,958.31
2017-01-16T09:46:38.232Z,958.33
2017-01-16T09:47:38.213Z,958.36
2017-01-16T09:48:38.193Z,958.35
2017-01-16T09:49:38.173Z,958.32
2017-01-16T09:50:38.155Z,958.3
2017-01-16T09:51:38.139Z,958.36
2017-01-16T09:52:38.118Z,958.38
2017-01-16T09:53:38.098Z,958.35
2017-01-16T09:54:38.079Z,958.38
2017-01-16T09:55:38.060Z,958.32
2017-01-16T09:56:38.041Z,958.31
2017-01-16T09:57:38.023Z,958.34
2017-01-16T09:58:38.003Z,958.32
2017-01-16T09:59:37.984Z,958.34
2017-01-16T10:00:37.965Z,958.33
2017-01-16T10:01:37.947Z,958.33
2017-01-16T10:02:37.927Z,958.37
2017-01-16T10:03:37.910Z,958.35
2017-01-16T10:04:37.890Z,958.35
2017-01-16T10:05:37.870Z,958.37
2017-01-16T10:06:37.852Z,958.37
2017-01-16T10:07:37.832Z,958.33
2017-01-16T10:08:37.813Z,958.4
2017-01-16T10:09:37.794Z,958.37
2017-01-16T10:10:37.775Z,958.31
2017-01-16T10:11:37.757Z,958.35
2017-01-16T10:12:37.738Z,958.32
2017-01-16T10:13:37.719Z,958.34
2017-01-16T10:14:37.700Z,958.32
2017-01-16T10:15:37.681Z,958.33
2017-01-16T10:16:37.663Z,958.33
2017-01-16T10:17:37.643Z,958.33
2017-01-16T10:18:37.625Z,958.34
2017-01-16T10:19:37.606Z,958.31
2017-01-16T10:20:37.586Z,958.35
2017-01-16T10:21:37.568Z,958.29
2017-01-16T10:22:37.549Z,958.29
2017-01-16T10:23:37.530Z,958.24
2017-01-16T10:24:37.513Z,958.28
2017-01-16T10:25:37.493Z,958.28
2017-01-16T10:26:37.473Z,958.32
2017-01-16T10:27:37.455Z,958.33
2017-01-16T10:28:37.436Z,958.32
2017-01-16T10:29:37.415Z,958.31
2017-01-16T10:30:37.398Z,958.3
2017-01-16T10:31:37.379Z,958.27
2017-01-16T10:32:37.360Z,958.25
2017-01-16T10:33:37.341Z,958.28
2017-01-16T10:34:37.323Z,958.31
2017-01-16T10:35:37.304Z,958.28
2017-01-16T10:36:37.286Z,958.26
2017-01-16T10:37:37.268Z,958.25
2017-01-16T10:38:37.248Z,958.25
2017-01-16T10:39:37.228Z,958.3
2017-01-16T10:40:37.210Z,958.32
2017-01-16T10:41:37.192Z,958.3
2017-01-16T10:42:37.173Z,958.3
2017-01-16T10:43:37.155Z,958.29
2017-01-16T10:44:37.136Z,958.27
2017-01-16T10:45:37.117Z,958.28
2017-01-16T10:46:37.106Z,958.29
2017-01-16T10:47:37.080Z,958.25
2017-01-16T10:48:37.062Z,958.29
2017-01-16T10:49:37.044Z,958.28
2017-01-16T10:50:37.025Z,958.26
2017-01-16T10:51:37.007Z,958.24
2017-01-16T10:52:36.987Z,958.23
2017-01-16T10:53:36.968Z,958.24
2017-01-16T10:54:36.963Z,958.18
2017-01-16T10:55:36.931Z,958.23
2017-01-16T10:56:36.913Z,958.26
2017-01-16T10:57:36.893Z,958.25
2017-01-16T10:58:36.874Z,958.28
2017-01-16T10:59:36.856Z,958.25
2017-01-16T11:00:36.836Z,958.27
2017-01-16T11:01:36.819Z,958.22
2017-01-16T11:02:36.800Z,958.22
2017-01-16T11:03:36.780Z,958.27
2017-01-16T11:04:36.762Z,958.23
2017-01-16T11:05:36.744Z,958.24
2017-01-16T11:06:36.724Z,958.24
2017-01-16T11:07:36.704Z,958.24
2017-01-16T11:08:36.686Z,958.27
2017-01-16T11:09:36.668Z,958.24
2017-01-16T11:10:36.649Z,958.26
2017-01-16T11:11:36.630Z,958.26
2017-01-16T11:12:36.611Z,958.26
2017-01-16T11:13:36.593Z,958.29
2017-01-16T11:14:36.576Z,958.3
2017-01-16T11:15:36.554Z,958.3
2017-01-16T11:16:36.536Z,958.27
2017-01-16T11:17:36.515Z,958.32
2017-01-16T11:18:36.497Z,958.34
2017-01-16T11:19:36.478Z,958.33
2017-01-16T11:20:36.459Z,958.37
2017-01-16T11:21:36.440Z,958.37
2017-01-16T11:22:36.420Z,958.38
2017-01-16T11:23:36.402Z,958.39
2017-01-16T11:24:36.383Z,958.39
2017-01-16T11:25:36.367Z,958.41
2017-01-16T11:26:36.345Z,958.41
2017-01-16T11:27:36.327Z,958.45
2017-01-16T11:28:36.307Z,958.41
2017-01-16T11:29:36.287Z,958.41
2017-01-16T11:30:36.270Z,958.4
2017-01-16T11:31:36.250Z,958.45
2017-01-16T11:32:36.230Z,958.39
2017-01-16T11:33:36.212Z,958.37
2017-01-16T11:34:36.192Z,958.43
2017-01-16T11:35:36.174Z,958.44
2017-01-16T11:36:36.155Z,958.42
2017-01-16T11:37:36.135Z,958.35
2017-01-16T11:38:36.118Z,958.42
2017-01-16T11:39:36.097Z,958.4
2017-01-16T11:40:36.079Z,958.39
2017-01-16T11:41:36.059Z,958.43
2017-01-16T11:42:36.039Z,958.37
2017-01-16T11:43:36.021Z,958.4
2017-01-16T11:44:36.002Z,958.35
2017-01-16T11:45:35.983Z,958.41
2017-01-16T11:46:35.962Z,958.42
2017-01-16T11:47:35.945Z,958.4
2017-01-16T11:48:35.927Z,958.4
2017-01-16T11:49:35.907Z,958.39
2017-01-16T11:50:35.886Z,958.39
2017-01-16T11:51:35.869Z,958.42
2017-01-16T11:52:35.848Z,958.46
2017-01-16T11:53:35.829Z,958.44
2017-01-16T11:54:35.810Z,958.41
2017-01-16T11:55:35.791Z,958.46
2017-01-16T11:56:35.773Z,958.43
2017-01-16T11:57:35.753Z,958.47
2017-01-16T11:58:35.735Z,958.46
2017-01-16T11:59:35.716Z,958.48
2017-01-16T12:00:35.697Z,958.44
2017-01-16T12:01:35.677Z,958.42
2017-01-16T12:02:35.658Z,958.46
2017-01-16T12:03:35.639Z,958.48
2017-01-16T12:04:35.619Z,958.48
2017-01-16T12:05:35.601Z,958.42
2017-01-16T12:06:35.583Z,958.45
2017-01-16T12:07:35.562Z,958.44
2017-01-16T12:08:35.543Z,958.46
2017-01-16T12:09:35.525Z,958.45
2017-01-16T12:10:35.506Z,958.45
2017-01-16T12:11:35.487Z,958.5
2017-01-16T12:12:35.468Z,958.47
2017-01-16T12:13:35.457Z,958.45
2017-01-16T12:14:35.648Z,958.42
2017-01-16T12:15:35.411Z,958.45
2017-01-16T12:16:35.395Z,958.43
2017-01-16T12:17:35.373Z,958.45
2017-01-16T12:18:35.354Z,958.5
2017-01-16T12:19:35.335Z,958.47
2017-01-16T12:20:35.316Z,958.53
2017-01-16T12:21:35.297Z,958.52
2017-01-16T12:22:35.278Z,958.54
2017-01-16T12:23:35.259Z,958.52
2017-01-16T12:24:35.241Z,958.54
2017-01-16T12:25:35.223Z,958.54
2017-01-16T12:26:35.202Z,958.5
2017-01-16T12:27:35.183Z,958.51
2017-01-16T12:28:35.165Z,958.53
2017-01-16T12:29:35.146Z,958.57
2017-01-16T12:30:35.126Z,958.56